Kingsbury, United Kingdom
Current Conditions -  °F | °C
As of 1:50 PM on Thursday 30 Oct 2014 (Local Time) from EGBB Reporting Station
Scattered Clouds Scattered Clouds  
Wind Chill: 64°   Ceiling: Unl
Heat Index: 64°   Visibility: 6mi
Dew Point: 57°   Wind: 8mph
Humidity: 77%   Direction: 180°S
Pressure: 30"   Gusts: NA
Location:  52.56°N, 1.68°W
Report Text: EGBB 301350Z 18007KT 150V220 9999 FEW020 SCT034 18/14 Q1016
Loading
Personal Weather Stations






























Interactive Weather Map New forecast layout! Learn more

10-Day Weather Forecast

Advertisements
Track Severe Weather on mobile